Terminal Aerodrome Forecast
Issued by NWS St Louis, MO

Home | Current Version | Previous Version | Text Only | Print | Product List | Glossary On
Versions: 1 2 3 4 5 6 7 8 9 10 11 12 13 14 15 16 17 18 19 20 21 22 23 24 25 26 27 28
938
FTUS43 KLSX 230938 AAC
TAFSTL
TAF AMD
KSTL 230938Z 2310/2412 11010KT P6SM VCTS OVC060CB
     FM231200 13011KT P6SM VCSH OVC040
     FM231700 13012KT P6SM OVC040
     FM232300 15013KT P6SM SCT200
     FM240300 16013KT P6SM SCT150 WS014/20045KT=

USA.gov is the U.S. government's official web portal to all federal, state and local government web resources and services.